sensor_id;sensor_type;location;lat;lon;timestamp;temperature;humidity
2565;DHT22;1292;48.020;7.822;2023-12-20T06:45:38;7.00;99.90
2565;DHT22;1292;48.020;7.822;2023-12-20T06:48:05;7.00;99.90
2565;DHT22;1292;48.020;7.822;2023-12-20T06:50:32;7.10;99.90
2565;DHT22;1292;48.020;7.822;2023-12-20T06:52:59;7.10;99.90
2565;DHT22;1292;48.020;7.822;2023-12-20T06:55:32;7.10;99.90
2565;DHT22;1292;48.020;7.822;2023-12-20T06:57:59;7.10;99.90
2565;DHT22;1292;48.020;7.822;2023-12-20T07:00:26;7.20;99.90
2565;DHT22;1292;48.020;7.822;2023-12-20T07:02:54;7.10;99.90
2565;DHT22;1292;48.020;7.822;2023-12-20T07:05:21;7.10;99.90
2565;DHT22;1292;48.020;7.822;2023-12-20T07:07:48;7.20;99.90
2565;DHT22;1292;48.020;7.822;2023-12-20T07:10:15;7.10;99.90
2565;DHT22;1292;48.020;7.822;2023-12-20T07:12:41;7.20;99.90
2565;DHT22;1292;48.020;7.822;2023-12-20T07:15:09;7.10;99.90
2565;DHT22;1292;48.020;7.822;2023-12-20T07:17:35;7.20;99.90
2565;DHT22;1292;48.020;7.822;2023-12-20T07:20:05;7.10;99.90
2565;DHT22;1292;48.020;7.822;2023-12-20T07:22:35;7.10;99.90
2565;DHT22;1292;48.020;7.822;2023-12-20T07:25:02;7.20;99.90
2565;DHT22;1292;48.020;7.822;2023-12-20T07:27:29;7.20;99.90
2565;DHT22;1292;48.020;7.822;2023-12-20T07:29:56;7.10;99.90
2565;DHT22;1292;48.020;7.822;2023-12-20T07:32:22;7.10;99.90
2565;DHT22;1292;48.020;7.822;2023-12-20T07:34:49;7.20;99.90
2565;DHT22;1292;48.020;7.822;2023-12-20T07:37:17;7.20;99.90
2565;DHT22;1292;48.020;7.822;2023-12-20T07:39:44;7.20;99.90
2565;DHT22;1292;48.020;7.822;2023-12-20T07:42:11;7.20;99.90
2565;DHT22;1292;48.020;7.822;2023-12-20T07:44:38;7.10;99.90
2565;DHT22;1292;48.020;7.822;2023-12-20T07:47:05;7.10;99.90
2565;DHT22;1292;48.020;7.822;2023-12-20T07:49:31;7.10;99.90
2565;DHT22;1292;48.020;7.822;2023-12-20T07:51:58;7.10;99.90
2565;DHT22;1292;48.020;7.822;2023-12-20T07:54:26;7.10;99.90
2565;DHT22;1292;48.020;7.822;2023-12-20T07:56:53;7.10;99.90
2565;DHT22;1292;48.020;7.822;2023-12-20T07:59:19;7.20;99.90
2565;DHT22;1292;48.020;7.822;2023-12-20T08:01:46;7.00;99.90
2565;DHT22;1292;48.020;7.822;2023-12-20T08:04:13;7.00;99.90
2565;DHT22;1292;48.020;7.822;2023-12-20T08:06:40;7.10;99.90
2565;DHT22;1292;48.020;7.822;2023-12-20T08:09:06;7.10;99.90
2565;DHT22;1292;48.020;7.822;2023-12-20T08:11:34;7.10;99.90
2565;DHT22;1292;48.020;7.822;2023-12-20T08:14:01;7.10;99.90
2565;DHT22;1292;48.020;7.822;2023-12-20T08:16:28;7.00;99.90
2565;DHT22;1292;48.020;7.822;2023-12-20T08:18:55;7.10;99.90
2565;DHT22;1292;48.020;7.822;2023-12-20T08:21:22;7.10;99.90
2565;DHT22;1292;48.020;7.822;2023-12-20T08:23:48;7.10;99.90
2565;DHT22;1292;48.020;7.822;2023-12-20T08:26:18;7.10;99.90
2565;DHT22;1292;48.020;7.822;2023-12-20T08:28:48;7.10;99.90
2565;DHT22;1292;48.020;7.822;2023-12-20T08:31:15;7.20;99.90
2565;DHT22;1292;48.020;7.822;2023-12-20T08:33:43;7.10;99.90
2565;DHT22;1292;48.020;7.822;2023-12-20T08:36:10;7.10;99.90
2565;DHT22;1292;48.020;7.822;2023-12-20T08:38:37;7.10;99.90
2565;DHT22;1292;48.020;7.822;2023-12-20T08:41:04;7.00;99.90
2565;DHT22;1292;48.020;7.822;2023-12-20T08:43:32;7.00;99.90
2565;DHT22;1292;48.020;7.822;2023-12-20T08:46:02;7.00;99.90
2565;DHT22;1292;48.020;7.822;2023-12-20T08:48:28;7.00;99.90
2565;DHT22;1292;48.020;7.822;2023-12-20T08:50:55;7.00;99.90
2565;DHT22;1292;48.020;7.822;2023-12-20T08:53:22;7.10;99.90
2565;DHT22;1292;48.020;7.822;2023-12-20T08:55:49;7.10;99.90
2565;DHT22;1292;48.020;7.822;2023-12-20T08:58:15;7.10;99.90
2565;DHT22;1292;48.020;7.822;2023-12-20T09:00:42;7.20;99.90
2565;DHT22;1292;48.020;7.822;2023-12-20T09:03:11;7.20;99.90
2565;DHT22;1292;48.020;7.822;2023-12-20T09:05:37;7.30;99.90
2565;DHT22;1292;48.020;7.822;2023-12-20T09:08:05;7.30;99.90
2565;DHT22;1292;48.020;7.822;2023-12-20T09:10:33;7.30;99.90
2565;DHT22;1292;48.020;7.822;2023-12-20T09:13:00;7.30;99.90
2565;DHT22;1292;48.020;7.822;2023-12-20T09:15:27;7.40;99.90
2565;DHT22;1292;48.020;7.822;2023-12-20T09:17:55;7.30;99.90
2565;DHT22;1292;48.020;7.822;2023-12-20T09:20:24;7.20;99.90
2565;DHT22;1292;48.020;7.822;2023-12-20T09:22:50;7.10;99.90
2565;DHT22;1292;48.020;7.822;2023-12-20T09:25:17;7.10;99.90
2565;DHT22;1292;48.020;7.822;2023-12-20T09:27:44;7.20;99.90
2565;DHT22;1292;48.020;7.822;2023-12-20T09:30:11;7.20;99.90
2565;DHT22;1292;48.020;7.822;2023-12-20T09:32:38;7.20;99.90
2565;DHT22;1292;48.020;7.822;2023-12-20T09:35:05;7.20;99.90
2565;DHT22;1292;48.020;7.822;2023-12-20T09:37:35;7.20;99.90
2565;DHT22;1292;48.020;7.822;2023-12-20T09:40:02;7.20;99.90
2565;DHT22;1292;48.020;7.822;2023-12-20T09:42:39;7.20;99.90
2565;DHT22;1292;48.020;7.822;2023-12-20T09:45:11;7.20;99.90
2565;DHT22;1292;48.020;7.822;2023-12-20T09:47:40;7.30;99.90
2565;DHT22;1292;48.020;7.822;2023-12-20T09:50:08;7.30;99.90
2565;DHT22;1292;48.020;7.822;2023-12-20T09:52:39;7.20;99.90
2565;DHT22;1292;48.020;7.822;2023-12-20T09:55:07;7.10;99.90
2565;DHT22;1292;48.020;7.822;2023-12-20T09:57:35;7.10;99.90
2565;DHT22;1292;48.020;7.822;2023-12-20T10:00:02;7.00;99.90
2565;DHT22;1292;48.020;7.822;2023-12-20T10:02:30;7.00;99.90
2565;DHT22;1292;48.020;7.822;2023-12-20T10:04:58;6.90;99.90
2565;DHT22;1292;48.020;7.822;2023-12-20T10:07:25;6.90;99.90
2565;DHT22;1292;48.020;7.822;2023-12-20T10:09:54;6.90;99.90
2565;DHT22;1292;48.020;7.822;2023-12-20T10:12:22;6.90;99.90
2565;DHT22;1292;48.020;7.822;2023-12-20T10:14:49;6.80;99.90
2565;DHT22;1292;48.020;7.822;2023-12-20T10:17:16;6.90;99.90
2565;DHT22;1292;48.020;7.822;2023-12-20T10:19:44;6.80;99.90
2565;DHT22;1292;48.020;7.822;2023-12-20T10:22:10;6.80;99.90
2565;DHT22;1292;48.020;7.822;2023-12-20T10:24:37;6.80;99.90
2565;DHT22;1292;48.020;7.822;2023-12-20T10:27:07;6.90;99.90
2565;DHT22;1292;48.020;7.822;2023-12-20T10:29:35;6.90;99.90
2565;DHT22;1292;48.020;7.822;2023-12-20T10:32:22;7.00;99.90
2565;DHT22;1292;48.020;7.822;2023-12-20T10:34:49;7.10;99.90
2565;DHT22;1292;48.020;7.822;2023-12-20T10:37:16;7.10;99.90
2565;DHT22;1292;48.020;7.822;2023-12-20T10:39:43;7.20;99.90
2565;DHT22;1292;48.020;7.822;2023-12-20T10:42:12;7.10;99.90
2565;DHT22;1292;48.020;7.822;2023-12-20T10:44:40;7.20;99.90
2565;DHT22;1292;48.020;7.822;2023-12-20T10:47:06;7.30;99.90
2565;DHT22;1292;48.020;7.822;2023-12-20T10:49:36;7.30;99.90
2565;DHT22;1292;48.020;7.822;2023-12-20T10:52:06;7.40;99.90
2565;DHT22;1292;48.020;7.822;2023-12-20T10:54:33;7.40;99.90
2565;DHT22;1292;48.020;7.822;2023-12-20T10:57:00;7.40;99.90
2565;DHT22;1292;48.020;7.822;2023-12-20T10:59:33;7.40;99.90
2565;DHT22;1292;48.020;7.822;2023-12-20T11:02:02;7.40;99.90
2565;DHT22;1292;48.020;7.822;2023-12-20T11:04:36;7.20;99.90
2565;DHT22;1292;48.020;7.822;2023-12-20T11:07:08;7.20;99.90
2565;DHT22;1292;48.020;7.822;2023-12-20T11:09:42;7.20;99.90
2565;DHT22;1292;48.020;7.822;2023-12-20T11:12:14;7.10;99.90
2565;DHT22;1292;48.020;7.822;2023-12-20T11:14:47;7.00;99.90
2565;DHT22;1292;48.020;7.822;2023-12-20T11:17:14;7.10;99.90
2565;DHT22;1292;48.020;7.822;2023-12-20T11:20:07;7.20;99.90
2565;DHT22;1292;48.020;7.822;2023-12-20T11:22:36;7.30;99.90
2565;DHT22;1292;48.020;7.822;2023-12-20T11:25:06;7.50;99.90
2565;DHT22;1292;48.020;7.822;2023-12-20T11:27:34;7.50;99.90
2565;DHT22;1292;48.020;7.822;2023-12-20T11:30:03;7.60;99.90
2565;DHT22;1292;48.020;7.822;2023-12-20T11:32:34;7.70;99.90
2565;DHT22;1292;48.020;7.822;2023-12-20T11:35:17;7.60;99.90
2565;DHT22;1292;48.020;7.822;2023-12-20T11:37:44;7.60;99.90
2565;DHT22;1292;48.020;7.822;2023-12-20T11:40:14;7.60;99.90
2565;DHT22;1292;48.020;7.822;2023-12-20T11:42:43;7.60;99.90
2565;DHT22;1292;48.020;7.822;2023-12-20T11:45:13;7.70;99.90
2565;DHT22;1292;48.020;7.822;2023-12-20T11:47:41;7.80;99.90
2565;DHT22;1292;48.020;7.822;2023-12-20T11:50:08;7.70;99.90
2565;DHT22;1292;48.020;7.822;2023-12-20T11:52:35;7.70;99.90
2565;DHT22;1292;48.020;7.822;2023-12-20T11:55:03;7.70;99.90
2565;DHT22;1292;48.020;7.822;2023-12-20T11:57:30;7.80;99.90
2565;DHT22;1292;48.020;7.822;2023-12-20T11:59:57;7.80;99.90
2565;DHT22;1292;48.020;7.822;2023-12-20T12:02:25;7.80;99.90
2565;DHT22;1292;48.020;7.822;2023-12-20T12:04:52;7.80;99.90
2565;DHT22;1292;48.020;7.822;2023-12-20T12:07:19;7.80;99.90
2565;DHT22;1292;48.020;7.822;2023-12-20T12:09:46;7.80;99.90
2565;DHT22;1292;48.020;7.822;2023-12-20T12:12:13;7.90;99.90
2565;DHT22;1292;48.020;7.822;2023-12-20T12:14:40;7.80;99.90
2565;DHT22;1292;48.020;7.822;2023-12-20T12:17:10;7.90;99.90
2565;DHT22;1292;48.020;7.822;2023-12-20T12:19:39;7.90;99.90
2565;DHT22;1292;48.020;7.822;2023-12-20T12:22:06;7.80;99.90
2565;DHT22;1292;48.020;7.822;2023-12-20T12:24:35;7.90;99.90
2565;DHT22;1292;48.020;7.822;2023-12-20T12:27:03;7.90;99.90
2565;DHT22;1292;48.020;7.822;2023-12-20T12:29:30;7.90;99.90
2565;DHT22;1292;48.020;7.822;2023-12-20T12:31:56;7.90;99.90
2565;DHT22;1292;48.020;7.822;2023-12-20T12:34:23;8.00;99.90
2565;DHT22;1292;48.020;7.822;2023-12-20T12:36:53;7.90;99.90
2565;DHT22;1292;48.020;7.822;2023-12-20T12:39:20;8.00;99.90
2565;DHT22;1292;48.020;7.822;2023-12-20T12:41:47;7.90;99.90
2565;DHT22;1292;48.020;7.822;2023-12-20T12:44:13;8.00;99.90
2565;DHT22;1292;48.020;7.822;2023-12-20T12:46:40;8.00;99.90
2565;DHT22;1292;48.020;7.822;2023-12-20T12:49:07;8.00;99.90
2565;DHT22;1292;48.020;7.822;2023-12-20T12:51:34;8.00;99.90
2565;DHT22;1292;48.020;7.822;2023-12-20T12:54:02;8.00;99.90
2565;DHT22;1292;48.020;7.822;2023-12-20T12:56:29;7.90;99.90
2565;DHT22;1292;48.020;7.822;2023-12-20T12:58:56;7.80;99.90
2565;DHT22;1292;48.020;7.822;2023-12-20T13:01:23;7.90;99.90
2565;DHT22;1292;48.020;7.822;2023-12-20T13:03:50;7.80;99.90
2565;DHT22;1292;48.020;7.822;2023-12-20T13:06:17;7.80;99.90
2565;DHT22;1292;48.020;7.822;2023-12-20T13:08:43;7.70;99.90
2565;DHT22;1292;48.020;7.822;2023-12-20T13:11:12;7.70;99.90
2565;DHT22;1292;48.020;7.822;2023-12-20T13:13:38;7.60;99.90
2565;DHT22;1292;48.020;7.822;2023-12-20T13:16:06;7.60;99.90
2565;DHT22;1292;48.020;7.822;2023-12-20T13:18:32;7.60;99.90
2565;DHT22;1292;48.020;7.822;2023-12-20T13:20:59;7.60;99.90
2565;DHT22;1292;48.020;7.822;2023-12-20T13:23:26;7.60;99.90
2565;DHT22;1292;48.020;7.822;2023-12-20T13:25:53;7.60;99.90
2565;DHT22;1292;48.020;7.822;2023-12-20T13:28:21;7.60;99.90
2565;DHT22;1292;48.020;7.822;2023-12-20T13:30:48;7.60;99.90
2565;DHT22;1292;48.020;7.822;2023-12-20T13:33:15;7.60;99.90
2565;DHT22;1292;48.020;7.822;2023-12-20T13:35:41;7.60;99.90
2565;DHT22;1292;48.020;7.822;2023-12-20T13:38:08;7.50;99.90
2565;DHT22;1292;48.020;7.822;2023-12-20T13:40:35;7.60;99.90
2565;DHT22;1292;48.020;7.822;2023-12-20T13:43:02;7.60;99.90
2565;DHT22;1292;48.020;7.822;2023-12-20T13:45:31;7.60;99.90
2565;DHT22;1292;48.020;7.822;2023-12-20T13:47:58;7.70;99.90
2565;DHT22;1292;48.020;7.822;2023-12-20T13:50:25;7.70;99.90
2565;DHT22;1292;48.020;7.822;2023-12-20T13:52:52;7.70;99.90
2565;DHT22;1292;48.020;7.822;2023-12-20T13:55:19;7.70;99.90
2565;DHT22;1292;48.020;7.822;2023-12-20T13:57:47;7.70;99.90
2565;DHT22;1292;48.020;7.822;2023-12-20T14:00:15;7.70;99.90
2565;DHT22;1292;48.020;7.822;2023-12-20T14:02:43;7.70;99.90
2565;DHT22;1292;48.020;7.822;2023-12-20T14:05:12;7.70;99.90
2565;DHT22;1292;48.020;7.822;2023-12-20T14:07:40;7.80;99.90
2565;DHT22;1292;48.020;7.822;2023-12-20T14:10:10;7.90;99.90
2565;DHT22;1292;48.020;7.822;2023-12-20T14:12:38;7.90;99.90
2565;DHT22;1292;48.020;7.822;2023-12-20T14:15:05;7.90;99.90
2565;DHT22;1292;48.020;7.822;2023-12-20T14:17:34;7.80;99.90
2565;DHT22;1292;48.020;7.822;2023-12-20T14:20:03;7.90;99.90
2565;DHT22;1292;48.020;7.822;2023-12-20T14:22:30;7.80;99.90
2565;DHT22;1292;48.020;7.822;2023-12-20T14:24:57;7.90;99.90
2565;DHT22;1292;48.020;7.822;2023-12-20T14:27:24;7.80;99.90
2565;DHT22;1292;48.020;7.822;2023-12-20T14:29:53;7.80;99.90
2565;DHT22;1292;48.020;7.822;2023-12-20T14:32:20;7.80;99.90
2565;DHT22;1292;48.020;7.822;2023-12-20T14:34:46;7.80;99.90
2565;DHT22;1292;48.020;7.822;2023-12-20T14:37:15;7.70;99.90
2565;DHT22;1292;48.020;7.822;2023-12-20T14:39:42;7.80;99.90
2565;DHT22;1292;48.020;7.822;2023-12-20T14:42:09;7.80;99.90
2565;DHT22;1292;48.020;7.822;2023-12-20T14:44:39;7.80;99.90
2565;DHT22;1292;48.020;7.822;2023-12-20T14:47:06;7.70;99.90
2565;DHT22;1292;48.020;7.822;2023-12-20T14:49:33;7.70;99.90
2565;DHT22;1292;48.020;7.822;2023-12-20T14:52:00;7.70;99.90
2565;DHT22;1292;48.020;7.822;2023-12-20T14:54:29;7.60;99.90
2565;DHT22;1292;48.020;7.822;2023-12-20T14:56:57;7.50;99.90
2565;DHT22;1292;48.020;7.822;2023-12-20T14:59:24;7.50;99.90
2565;DHT22;1292;48.020;7.822;2023-12-20T15:01:51;7.50;99.90
2565;DHT22;1292;48.020;7.822;2023-12-20T15:04:18;7.50;99.90
2565;DHT22;1292;48.020;7.822;2023-12-20T15:06:51;7.50;99.90
2565;DHT22;1292;48.020;7.822;2023-12-20T15:09:18;7.50;99.90
2565;DHT22;1292;48.020;7.822;2023-12-20T15:11:46;7.40;99.90
2565;DHT22;1292;48.020;7.822;2023-12-20T15:14:13;7.40;99.90
2565;DHT22;1292;48.020;7.822;2023-12-20T15:16:44;7.30;99.90
2565;DHT22;1292;48.020;7.822;2023-12-20T15:19:12;7.30;99.90
2565;DHT22;1292;48.020;7.822;2023-12-20T15:21:39;7.30;99.90
2565;DHT22;1292;48.020;7.822;2023-12-20T15:24:07;7.30;99.90
2565;DHT22;1292;48.020;7.822;2023-12-20T15:26:40;7.20;99.90
2565;DHT22;1292;48.020;7.822;2023-12-20T15:29:08;7.20;99.90
2565;DHT22;1292;48.020;7.822;2023-12-20T15:31:37;7.10;99.90
2565;DHT22;1292;48.020;7.822;2023-12-20T15:34:08;7.10;99.90
2565;DHT22;1292;48.020;7.822;2023-12-20T15:36:35;7.10;99.90
2565;DHT22;1292;48.020;7.822;2023-12-20T15:39:02;7.10;99.90
2565;DHT22;1292;48.020;7.822;2023-12-20T15:41:29;7.10;99.90
2565;DHT22;1292;48.020;7.822;2023-12-20T15:43:56;7.00;99.90
2565;DHT22;1292;48.020;7.822;2023-12-20T15:46:24;7.00;99.90
2565;DHT22;1292;48.020;7.822;2023-12-20T15:48:51;6.90;99.90
2565;DHT22;1292;48.020;7.822;2023-12-20T15:51:20;6.80;99.90
2565;DHT22;1292;48.020;7.822;2023-12-20T15:53:47;6.70;99.90
2565;DHT22;1292;48.020;7.822;2023-12-20T15:56:14;6.70;99.90
2565;DHT22;1292;48.020;7.822;2023-12-20T15:58:41;6.80;99.90
2565;DHT22;1292;48.020;7.822;2023-12-20T16:01:08;6.70;99.90
2565;DHT22;1292;48.020;7.822;2023-12-20T16:03:36;6.60;99.90
2565;DHT22;1292;48.020;7.822;2023-12-20T16:06:03;6.60;99.90
2565;DHT22;1292;48.020;7.822;2023-12-20T16:08:30;6.50;99.90
2565;DHT22;1292;48.020;7.822;2023-12-20T16:10:58;6.50;99.90
2565;DHT22;1292;48.020;7.822;2023-12-20T16:13:24;6.50;99.90
2565;DHT22;1292;48.020;7.822;2023-12-20T16:15:51;6.40;99.90
2565;DHT22;1292;48.020;7.822;2023-12-20T16:18:18;6.40;99.90
2565;DHT22;1292;48.020;7.822;2023-12-20T16:20:46;6.40;99.90
2565;DHT22;1292;48.020;7.822;2023-12-20T16:23:13;6.30;99.90
2565;DHT22;1292;48.020;7.822;2023-12-20T16:25:40;6.30;99.90
2565;DHT22;1292;48.020;7.822;2023-12-20T16:28:06;6.30;99.90
2565;DHT22;1292;48.020;7.822;2023-12-20T16:30:33;6.30;99.90
2565;DHT22;1292;48.020;7.822;2023-12-20T16:33:01;6.30;99.90
2565;DHT22;1292;48.020;7.822;2023-12-20T16:35:27;6.30;99.90
2565;DHT22;1292;48.020;7.822;2023-12-20T16:37:56;6.30;99.90
2565;DHT22;1292;48.020;7.822;2023-12-20T16:40:22;6.30;99.90
2565;DHT22;1292;48.020;7.822;2023-12-20T16:42:50;6.30;99.90
2565;DHT22;1292;48.020;7.822;2023-12-20T16:45:17;6.30;99.90
2565;DHT22;1292;48.020;7.822;2023-12-20T16:47:44;6.30;99.90
2565;DHT22;1292;48.020;7.822;2023-12-20T16:50:11;6.30;99.90
2565;DHT22;1292;48.020;7.822;2023-12-20T16:52:38;6.30;99.90
2565;DHT22;1292;48.020;7.822;2023-12-20T16:55:09;6.30;99.90
2565;DHT22;1292;48.020;7.822;2023-12-20T16:57:36;6.30;99.90
2565;DHT22;1292;48.020;7.822;2023-12-20T17:00:04;6.20;99.90
2565;DHT22;1292;48.020;7.822;2023-12-20T17:02:32;6.20;99.90
2565;DHT22;1292;48.020;7.822;2023-12-20T17:04:59;6.20;99.90
2565;DHT22;1292;48.020;7.822;2023-12-20T17:07:26;6.20;99.90
2565;DHT22;1292;48.020;7.822;2023-12-20T17:09:54;6.20;99.90
2565;DHT22;1292;48.020;7.822;2023-12-20T17:12:22;6.20;99.90
2565;DHT22;1292;48.020;7.822;2023-12-20T17:14:50;6.20;99.90
2565;DHT22;1292;48.020;7.822;2023-12-20T17:17:17;6.20;99.90
2565;DHT22;1292;48.020;7.822;2023-12-20T17:19:44;6.20;99.90
2565;DHT22;1292;48.020;7.822;2023-12-20T17:22:11;6.10;99.90
2565;DHT22;1292;48.020;7.822;2023-12-20T17:24:37;6.00;99.90
2565;DHT22;1292;48.020;7.822;2023-12-20T17:27:04;6.00;99.90
2565;DHT22;1292;48.020;7.822;2023-12-20T17:29:32;6.10;99.90
2565;DHT22;1292;48.020;7.822;2023-12-20T17:31:59;6.10;99.90
2565;DHT22;1292;48.020;7.822;2023-12-20T17:34:26;6.10;99.90
2565;DHT22;1292;48.020;7.822;2023-12-20T17:36:53;6.10;99.90
2565;DHT22;1292;48.020;7.822;2023-12-20T17:39:19;6.10;99.90
2565;DHT22;1292;48.020;7.822;2023-12-20T17:41:47;6.00;99.90
2565;DHT22;1292;48.020;7.822;2023-12-20T17:44:13;6.00;99.90
2565;DHT22;1292;48.020;7.822;2023-12-20T17:46:43;6.00;99.90
2565;DHT22;1292;48.020;7.822;2023-12-20T17:49:10;6.10;99.90
2565;DHT22;1292;48.020;7.822;2023-12-20T17:51:37;6.10;99.90
2565;DHT22;1292;48.020;7.822;2023-12-20T17:54:04;6.00;99.90
2565;DHT22;1292;48.020;7.822;2023-12-20T17:56:30;6.10;99.90
2565;DHT22;1292;48.020;7.822;2023-12-20T17:58:57;6.10;99.90
2565;DHT22;1292;48.020;7.822;2023-12-20T18:01:25;6.10;99.90
2565;DHT22;1292;48.020;7.822;2023-12-20T18:03:53;6.10;99.90
2565;DHT22;1292;48.020;7.822;2023-12-20T18:06:20;6.10;99.90
2565;DHT22;1292;48.020;7.822;2023-12-20T18:08:46;6.10;99.90
2565;DHT22;1292;48.020;7.822;2023-12-20T18:11:14;6.10;99.90
2565;DHT22;1292;48.020;7.822;2023-12-20T18:13:40;6.10;99.90
2565;DHT22;1292;48.020;7.822;2023-12-20T18:16:07;6.10;99.90
2565;DHT22;1292;48.020;7.822;2023-12-20T18:18:36;6.10;99.90
2565;DHT22;1292;48.020;7.822;2023-12-20T18:21:04;6.00;99.90
2565;DHT22;1292;48.020;7.822;2023-12-20T18:23:31;6.10;99.90
2565;DHT22;1292;48.020;7.822;2023-12-20T18:25:58;6.10;99.90
2565;DHT22;1292;48.020;7.822;2023-12-20T18:28:25;6.10;99.90
2565;DHT22;1292;48.020;7.822;2023-12-20T18:30:52;6.10;99.90
2565;DHT22;1292;48.020;7.822;2023-12-20T18:33:18;6.10;99.90
2565;DHT22;1292;48.020;7.822;2023-12-20T18:35:45;6.20;99.90
2565;DHT22;1292;48.020;7.822;2023-12-20T18:38:13;6.20;99.90
2565;DHT22;1292;48.020;7.822;2023-12-20T18:40:40;6.20;99.90
2565;DHT22;1292;48.020;7.822;2023-12-20T18:43:13;6.20;99.90
2565;DHT22;1292;48.020;7.822;2023-12-20T18:45:40;6.10;99.90
2565;DHT22;1292;48.020;7.822;2023-12-20T18:48:07;6.10;99.90
2565;DHT22;1292;48.020;7.822;2023-12-20T18:50:34;6.20;99.90
2565;DHT22;1292;48.020;7.822;2023-12-20T18:53:00;6.20;99.90
2565;DHT22;1292;48.020;7.822;2023-12-20T18:55:29;6.20;99.90
2565;DHT22;1292;48.020;7.822;2023-12-20T18:57:55;6.20;99.90
2565;DHT22;1292;48.020;7.822;2023-12-20T19:00:22;6.20;99.90
2565;DHT22;1292;48.020;7.822;2023-12-20T19:02:51;6.20;99.90
2565;DHT22;1292;48.020;7.822;2023-12-20T19:05:18;6.20;99.90
2565;DHT22;1292;48.020;7.822;2023-12-20T19:07:44;6.20;99.90
2565;DHT22;1292;48.020;7.822;2023-12-20T19:10:11;6.20;99.90
2565;DHT22;1292;48.020;7.822;2023-12-20T19:12:40;6.30;99.90
2565;DHT22;1292;48.020;7.822;2023-12-20T19:15:08;6.30;99.90
2565;DHT22;1292;48.020;7.822;2023-12-20T19:17:36;6.30;99.90
2565;DHT22;1292;48.020;7.822;2023-12-20T19:20:05;6.30;99.90
2565;DHT22;1292;48.020;7.822;2023-12-20T19:22:33;6.30;99.90
2565;DHT22;1292;48.020;7.822;2023-12-20T19:25:01;6.30;99.90
2565;DHT22;1292;48.020;7.822;2023-12-20T19:27:31;6.30;99.90
2565;DHT22;1292;48.020;7.822;2023-12-20T19:29:59;6.30;99.90
2565;DHT22;1292;48.020;7.822;2023-12-20T19:32:26;6.30;99.90
2565;DHT22;1292;48.020;7.822;2023-12-20T19:34:53;6.30;99.90
2565;DHT22;1292;48.020;7.822;2023-12-20T19:37:20;6.30;99.90
2565;DHT22;1292;48.020;7.822;2023-12-20T19:39:46;6.30;99.90
2565;DHT22;1292;48.020;7.822;2023-12-20T19:42:13;6.30;99.90
2565;DHT22;1292;48.020;7.822;2023-12-20T19:44:40;6.20;99.90
2565;DHT22;1292;48.020;7.822;2023-12-20T19:47:08;6.20;99.90
2565;DHT22;1292;48.020;7.822;2023-12-20T19:49:36;6.20;99.90
2565;DHT22;1292;48.020;7.822;2023-12-20T19:52:04;6.20;99.90
2565;DHT22;1292;48.020;7.822;2023-12-20T19:54:32;6.30;99.90
2565;DHT22;1292;48.020;7.822;2023-12-20T19:56:59;6.30;99.90
2565;DHT22;1292;48.020;7.822;2023-12-20T19:59:26;6.30;99.90
2565;DHT22;1292;48.020;7.822;2023-12-20T20:01:53;6.20;99.90
2565;DHT22;1292;48.020;7.822;2023-12-20T20:04:22;6.30;99.90
2565;DHT22;1292;48.020;7.822;2023-12-20T20:06:50;6.30;99.90
2565;DHT22;1292;48.020;7.822;2023-12-20T20:09:17;6.30;99.90
2565;DHT22;1292;48.020;7.822;2023-12-20T20:11:44;6.30;99.90
2565;DHT22;1292;48.020;7.822;2023-12-20T20:14:11;6.30;99.90
2565;DHT22;1292;48.020;7.822;2023-12-20T20:16:38;6.20;99.90
2565;DHT22;1292;48.020;7.822;2023-12-20T20:19:05;6.30;99.90
2565;DHT22;1292;48.020;7.822;2023-12-20T20:21:33;6.30;99.90
2565;DHT22;1292;48.020;7.822;2023-12-20T20:24:00;6.30;99.90
2565;DHT22;1292;48.020;7.822;2023-12-20T20:26:27;6.30;99.90
2565;DHT22;1292;48.020;7.822;2023-12-20T20:28:54;6.30;99.90
2565;DHT22;1292;48.020;7.822;2023-12-20T20:31:20;6.30;99.90
2565;DHT22;1292;48.020;7.822;2023-12-20T20:33:47;6.30;99.90
2565;DHT22;1292;48.020;7.822;2023-12-20T20:36:14;6.20;99.90
2565;DHT22;1292;48.020;7.822;2023-12-20T20:38:42;6.30;99.90
2565;DHT22;1292;48.020;7.822;2023-12-20T20:41:09;6.20;99.90
2565;DHT22;1292;48.020;7.822;2023-12-20T20:43:36;6.30;99.90
2565;DHT22;1292;48.020;7.822;2023-12-20T20:46:03;6.20;99.90
2565;DHT22;1292;48.020;7.822;2023-12-20T20:48:30;6.30;99.90
2565;DHT22;1292;48.020;7.822;2023-12-20T20:50:57;6.30;99.90
2565;DHT22;1292;48.020;7.822;2023-12-20T20:53:24;6.30;99.90
2565;DHT22;1292;48.020;7.822;2023-12-20T20:55:53;6.20;99.90
2565;DHT22;1292;48.020;7.822;2023-12-20T20:58:19;6.30;99.90
2565;DHT22;1292;48.020;7.822;2023-12-20T21:00:46;6.30;99.90
2565;DHT22;1292;48.020;7.822;2023-12-20T21:03:14;6.30;99.90
2565;DHT22;1292;48.020;7.822;2023-12-20T21:05:41;6.30;99.90
2565;DHT22;1292;48.020;7.822;2023-12-20T21:08:08;6.30;99.90
2565;DHT22;1292;48.020;7.822;2023-12-20T21:10:34;6.20;99.90
2565;DHT22;1292;48.020;7.822;2023-12-20T21:13:03;6.30;99.90
2565;DHT22;1292;48.020;7.822;2023-12-20T21:15:29;6.30;99.90
2565;DHT22;1292;48.020;7.822;2023-12-20T21:17:56;6.30;99.90
2565;DHT22;1292;48.020;7.822;2023-12-20T21:20:23;6.30;99.90
2565;DHT22;1292;48.020;7.822;2023-12-20T21:22:50;6.40;99.90
2565;DHT22;1292;48.020;7.822;2023-12-20T21:25:17;6.30;99.90
2565;DHT22;1292;48.020;7.822;2023-12-20T21:27:44;6.30;99.90
2565;DHT22;1292;48.020;7.822;2023-12-20T21:30:12;6.30;99.90
2565;DHT22;1292;48.020;7.822;2023-12-20T21:32:39;6.40;99.90
2565;DHT22;1292;48.020;7.822;2023-12-20T21:35:08;6.40;99.90
2565;DHT22;1292;48.020;7.822;2023-12-20T21:37:34;6.40;99.90
2565;DHT22;1292;48.020;7.822;2023-12-20T21:40:01;6.40;99.90
2565;DHT22;1292;48.020;7.822;2023-12-20T21:42:28;6.40;99.90
2565;DHT22;1292;48.020;7.822;2023-12-20T21:44:55;6.40;99.90
2565;DHT22;1292;48.020;7.822;2023-12-20T21:47:23;6.50;99.90
2565;DHT22;1292;48.020;7.822;2023-12-20T21:49:51;6.40;99.90
2565;DHT22;1292;48.020;7.822;2023-12-20T21:52:18;6.40;99.90
2565;DHT22;1292;48.020;7.822;2023-12-20T21:54:45;6.40;99.90
2565;DHT22;1292;48.020;7.822;2023-12-20T21:57:11;6.40;99.90
2565;DHT22;1292;48.020;7.822;2023-12-20T21:59:38;6.40;99.90
2565;DHT22;1292;48.020;7.822;2023-12-20T22:02:05;6.50;99.90
2565;DHT22;1292;48.020;7.822;2023-12-20T22:04:34;6.50;99.90
2565;DHT22;1292;48.020;7.822;2023-12-20T22:07:01;6.50;99.90
2565;DHT22;1292;48.020;7.822;2023-12-20T22:09:28;6.40;99.90
2565;DHT22;1292;48.020;7.822;2023-12-20T22:11:55;6.40;99.90
2565;DHT22;1292;48.020;7.822;2023-12-20T22:14:22;6.40;99.90
2565;DHT22;1292;48.020;7.822;2023-12-20T22:16:51;6.40;99.90
2565;DHT22;1292;48.020;7.822;2023-12-20T22:19:17;6.40;99.90
2565;DHT22;1292;48.020;7.822;2023-12-20T22:21:46;6.50;99.90
2565;DHT22;1292;48.020;7.822;2023-12-20T22:24:12;6.50;99.90
2565;DHT22;1292;48.020;7.822;2023-12-20T22:26:39;6.50;99.90
2565;DHT22;1292;48.020;7.822;2023-12-20T22:29:06;6.40;99.90
2565;DHT22;1292;48.020;7.822;2023-12-20T22:31:33;6.50;99.90
2565;DHT22;1292;48.020;7.822;2023-12-20T22:33:59;6.50;99.90
2565;DHT22;1292;48.020;7.822;2023-12-20T22:36:26;6.50;99.90
2565;DHT22;1292;48.020;7.822;2023-12-20T22:38:54;6.50;99.90
